Weather at Munich Airport

Public forecast

Using degrees Celsius for public forecast. Weather courtesy of forecast.io.

Current aviation weather report (METAR) for Munich Airport

Retrieved 2021/06/23 10:50 UTC (20 minutes ago):

EDDM 231050Z 03005KT 320V080 9999 SCT028 SCT045 24/16 Q1018 NOSIG

Aviation forecast (TAF) for Munich Airport

Retrieved 2021/06/23 06:31 UTC (5 hours ago):

TAF EDDM 230500Z 2306/2412 VRB03KT 9999 SCT012 BKN030 TEMPO 2306/2308 BKN010 BECMG 2310/2312 02005KT PROB30 TEMPO 2318/2322 23015G30KT TSRA SCT015 BKN030CB PROB40 TEMPO 2322/2401 25030G45KT 4000 +TSRA SCT010 BKN020CB BECMG 2400/2402 25005KT TEMPO 2401/2406 BKN006 PROB30 TEMPO 2406/2408 BKN010 BECMG 2410/2412 02005KT